sensor_id;sensor_type;location;lat;lon;timestamp;pressure;altitude;pressure_sealevel;temperature;humidity
45050;BME280;61798;48.048;-1.928;2023-04-05T00:00:09;101573.22;;;2.38;100.00
45050;BME280;61798;48.048;-1.928;2023-04-05T00:03:12;101580.88;;;2.66;100.00
45050;BME280;61798;48.048;-1.928;2023-04-05T00:05:32;101620.88;;;2.86;100.00
45050;BME280;61798;48.048;-1.928;2023-04-05T00:25:26;101626.03;;;2.99;100.00
45050;BME280;61798;48.048;-1.928;2023-04-05T00:28:10;101602.19;;;2.88;100.00
45050;BME280;61798;48.048;-1.928;2023-04-05T00:30:43;101610.13;;;2.88;100.00
45050;BME280;61798;48.048;-1.928;2023-04-05T00:33:02;101577.50;;;2.75;100.00
45050;BME280;61798;48.048;-1.928;2023-04-05T00:39:43;101578.75;;;2.10;100.00
45050;BME280;61798;48.048;-1.928;2023-04-05T00:43:00;101602.31;;;1.89;100.00
45050;BME280;61798;48.048;-1.928;2023-04-05T00:46:28;101598.44;;;1.82;100.00
45050;BME280;61798;48.048;-1.928;2023-04-05T00:49:29;101562.69;;;1.51;100.00
45050;BME280;61798;48.048;-1.928;2023-04-05T00:53:15;101536.03;;;1.16;100.00
45050;BME280;61798;48.048;-1.928;2023-04-05T00:56:07;101558.31;;;1.25;100.00
45050;BME280;61798;48.048;-1.928;2023-04-05T00:59:02;101598.84;;;1.51;100.00
45050;BME280;61798;48.048;-1.928;2023-04-05T01:16:31;101542.22;;;1.29;100.00
45050;BME280;61798;48.048;-1.928;2023-04-05T01:19:16;101548.72;;;1.62;100.00
45050;BME280;61798;48.048;-1.928;2023-04-05T01:26:41;101470.34;;;1.12;100.00
45050;BME280;61798;48.048;-1.928;2023-04-05T01:37:25;101540.13;;;1.21;100.00
45050;BME280;61798;48.048;-1.928;2023-04-05T01:39:38;101520.53;;;0.99;100.00
45050;BME280;61798;48.048;-1.928;2023-04-05T01:41:57;101567.16;;;1.24;100.00
45050;BME280;61798;48.048;-1.928;2023-04-05T01:44:10;101507.44;;;0.84;100.00
45050;BME280;61798;48.048;-1.928;2023-04-05T01:46:20;101539.50;;;1.04;100.00
45050;BME280;61798;48.048;-1.928;2023-04-05T01:48:43;101550.91;;;1.18;100.00
45050;BME280;61798;48.048;-1.928;2023-04-05T01:50:56;101564.75;;;1.08;100.00
45050;BME280;61798;48.048;-1.928;2023-04-05T01:53:36;101546.09;;;1.11;100.00
45050;BME280;61798;48.048;-1.928;2023-04-05T01:55:58;101558.59;;;1.34;100.00
45050;BME280;61798;48.048;-1.928;2023-04-05T01:58:16;101511.78;;;0.85;100.00
45050;BME280;61798;48.048;-1.928;2023-04-05T02:00:31;101478.53;;;0.56;100.00
45050;BME280;61798;48.048;-1.928;2023-04-05T02:02:48;101564.66;;;0.97;100.00
45050;BME280;61798;48.048;-1.928;2023-04-05T02:04:57;101514.75;;;0.67;100.00
45050;BME280;61798;48.048;-1.928;2023-04-05T02:07:14;101521.69;;;0.68;100.00
45050;BME280;61798;48.048;-1.928;2023-04-05T02:09:22;101475.59;;;0.48;100.00
45050;BME280;61798;48.048;-1.928;2023-04-05T02:11:33;101514.63;;;0.43;100.00
45050;BME280;61798;48.048;-1.928;2023-04-05T02:13:45;101504.91;;;0.69;100.00
45050;BME280;61798;48.048;-1.928;2023-04-05T02:15:56;101508.28;;;0.45;100.00
45050;BME280;61798;48.048;-1.928;2023-04-05T02:18:05;101486.88;;;0.24;100.00
45050;BME280;61798;48.048;-1.928;2023-04-05T02:20:33;101493.94;;;0.23;100.00
45050;BME280;61798;48.048;-1.928;2023-04-05T02:22:42;101546.28;;;0.69;100.00
45050;BME280;61798;48.048;-1.928;2023-04-05T02:24:54;101466.56;;;-0.02;100.00
45050;BME280;61798;48.048;-1.928;2023-04-05T02:27:04;101504.59;;;0.35;100.00
45050;BME280;61798;48.048;-1.928;2023-04-05T02:29:26;101480.63;;;0.64;100.00
45050;BME280;61798;48.048;-1.928;2023-04-05T02:31:49;101534.25;;;1.04;100.00
45050;BME280;61798;48.048;-1.928;2023-04-05T02:34:17;101530.56;;;0.93;100.00
45050;BME280;61798;48.048;-1.928;2023-04-05T02:36:28;101537.13;;;0.75;100.00
45050;BME280;61798;48.048;-1.928;2023-04-05T02:38:59;101526.84;;;0.57;100.00
45050;BME280;61798;48.048;-1.928;2023-04-05T02:41:29;101460.34;;;0.12;100.00
45050;BME280;61798;48.048;-1.928;2023-04-05T02:43:48;101542.91;;;0.80;100.00
45050;BME280;61798;48.048;-1.928;2023-04-05T02:46:02;101510.91;;;0.45;100.00
45050;BME280;61798;48.048;-1.928;2023-04-05T02:48:29;101498.22;;;0.24;100.00
45050;BME280;61798;48.048;-1.928;2023-04-05T02:50:39;101528.34;;;0.87;100.00
45050;BME280;61798;48.048;-1.928;2023-04-05T02:52:50;101491.16;;;0.12;100.00
45050;BME280;61798;48.048;-1.928;2023-04-05T02:55:00;101468.31;;;0.38;100.00
45050;BME280;61798;48.048;-1.928;2023-04-05T02:57:12;101437.19;;;0.30;100.00
45050;BME280;61798;48.048;-1.928;2023-04-05T02:59:25;101519.47;;;0.88;100.00
45050;BME280;61798;48.048;-1.928;2023-04-05T03:01:37;101524.25;;;0.83;100.00
45050;BME280;61798;48.048;-1.928;2023-04-05T03:03:55;101500.34;;;0.98;100.00
45050;BME280;61798;48.048;-1.928;2023-04-05T03:06:16;101484.88;;;0.54;100.00
45050;BME280;61798;48.048;-1.928;2023-04-05T03:09:41;101432.53;;;0.21;100.00
45050;BME280;61798;48.048;-1.928;2023-04-05T03:18:24;101481.59;;;0.37;100.00
45050;BME280;61798;48.048;-1.928;2023-04-05T03:22:06;101426.81;;;0.01;100.00
45050;BME280;61798;48.048;-1.928;2023-04-05T03:25:41;101515.03;;;0.49;100.00
45050;BME280;61798;48.048;-1.928;2023-04-05T03:29:18;101435.91;;;0.10;100.00
45050;BME280;61798;48.048;-1.928;2023-04-05T03:39:01;101422.56;;;-0.15;100.00
45050;BME280;61798;48.048;-1.928;2023-04-05T03:41:59;101506.16;;;0.37;100.00
45050;BME280;61798;48.048;-1.928;2023-04-05T03:44:38;101484.94;;;0.13;100.00
45050;BME280;61798;48.048;-1.928;2023-04-05T03:46:51;101468.78;;;0.04;100.00
45050;BME280;61798;48.048;-1.928;2023-04-05T03:49:02;101441.34;;;-0.06;100.00
45050;BME280;61798;48.048;-1.928;2023-04-05T03:51:20;101427.25;;;-0.05;100.00
45050;BME280;61798;48.048;-1.928;2023-04-05T03:53:43;101493.91;;;0.36;100.00
45050;BME280;61798;48.048;-1.928;2023-04-05T03:55:55;101474.81;;;0.06;100.00
45050;BME280;61798;48.048;-1.928;2023-04-05T03:58:19;101446.16;;;-0.26;100.00
45050;BME280;61798;48.048;-1.928;2023-04-05T04:00:37;101523.44;;;0.15;100.00
45050;BME280;61798;48.048;-1.928;2023-04-05T04:03:11;101448.25;;;-0.32;100.00
45050;BME280;61798;48.048;-1.928;2023-04-05T04:05:41;101472.25;;;0.05;100.00
45050;BME280;61798;48.048;-1.928;2023-04-05T04:07:51;101483.44;;;-0.05;100.00
45050;BME280;61798;48.048;-1.928;2023-04-05T04:10:05;101459.25;;;-0.25;100.00
45050;BME280;61798;48.048;-1.928;2023-04-05T04:12:18;101516.91;;;0.21;100.00
45050;BME280;61798;48.048;-1.928;2023-04-05T04:14:35;101532.97;;;0.44;100.00
45050;BME280;61798;48.048;-1.928;2023-04-05T04:17:08;101534.44;;;0.48;100.00
45050;BME280;61798;48.048;-1.928;2023-04-05T04:19:22;101473.34;;;0.15;100.00
45050;BME280;61798;48.048;-1.928;2023-04-05T04:21:31;101487.91;;;0.21;100.00
45050;BME280;61798;48.048;-1.928;2023-04-05T04:24:09;101478.28;;;0.20;100.00
45050;BME280;61798;48.048;-1.928;2023-04-05T04:27:15;101481.25;;;0.15;100.00
45050;BME280;61798;48.048;-1.928;2023-04-05T04:31:12;101452.03;;;0.05;100.00
45050;BME280;61798;48.048;-1.928;2023-04-05T04:34:05;101482.31;;;0.26;100.00
45050;BME280;61798;48.048;-1.928;2023-04-05T04:37:30;101486.13;;;0.35;100.00
45050;BME280;61798;48.048;-1.928;2023-04-05T04:40:47;101495.84;;;0.47;100.00
45050;BME280;61798;48.048;-1.928;2023-04-05T04:44:00;101475.91;;;0.43;100.00
45050;BME280;61798;48.048;-1.928;2023-04-05T04:46:40;101513.88;;;0.93;100.00
45050;BME280;61798;48.048;-1.928;2023-04-05T04:49:59;101499.41;;;0.99;100.00
45050;BME280;61798;48.048;-1.928;2023-04-05T04:52:13;101452.16;;;0.56;100.00
45050;BME280;61798;48.048;-1.928;2023-04-05T04:54:46;101466.94;;;0.59;100.00
45050;BME280;61798;48.048;-1.928;2023-04-05T04:56:58;101506.09;;;0.91;100.00
45050;BME280;61798;48.048;-1.928;2023-04-05T04:59:14;101498.13;;;1.04;100.00
45050;BME280;61798;48.048;-1.928;2023-04-05T05:01:27;101469.63;;;0.97;100.00
45050;BME280;61798;48.048;-1.928;2023-04-05T05:07:33;101477.63;;;1.08;100.00
45050;BME280;61798;48.048;-1.928;2023-04-05T05:10:06;101510.13;;;1.35;100.00
45050;BME280;61798;48.048;-1.928;2023-04-05T05:12:18;101520.47;;;1.38;100.00
45050;BME280;61798;48.048;-1.928;2023-04-05T05:14:26;101506.69;;;1.46;100.00
45050;BME280;61798;48.048;-1.928;2023-04-05T05:16:36;101496.38;;;1.30;100.00
45050;BME280;61798;48.048;-1.928;2023-04-05T05:18:49;101460.13;;;1.07;100.00
45050;BME280;61798;48.048;-1.928;2023-04-05T05:20:58;101484.47;;;1.24;100.00
45050;BME280;61798;48.048;-1.928;2023-04-05T05:23:08;101450.13;;;1.24;100.00
45050;BME280;61798;48.048;-1.928;2023-04-05T05:25:17;101505.53;;;1.50;100.00
45050;BME280;61798;48.048;-1.928;2023-04-05T05:27:28;101426.53;;;1.09;100.00
45050;BME280;61798;48.048;-1.928;2023-04-05T05:29:45;101441.91;;;1.15;100.00
45050;BME280;61798;48.048;-1.928;2023-04-05T05:32:02;101500.03;;;1.40;100.00
45050;BME280;61798;48.048;-1.928;2023-04-05T05:34:13;101532.56;;;1.54;100.00
45050;BME280;61798;48.048;-1.928;2023-04-05T05:36:22;101517.59;;;1.41;100.00
45050;BME280;61798;48.048;-1.928;2023-04-05T05:38:46;101513.56;;;1.35;100.00
45050;BME280;61798;48.048;-1.928;2023-04-05T05:41:19;101509.03;;;1.37;100.00
45050;BME280;61798;48.048;-1.928;2023-04-05T05:43:57;101486.59;;;1.19;100.00
45050;BME280;61798;48.048;-1.928;2023-04-05T05:46:33;101484.47;;;1.24;100.00
45050;BME280;61798;48.048;-1.928;2023-04-05T05:49:35;101489.13;;;1.20;100.00
45050;BME280;61798;48.048;-1.928;2023-04-05T05:52:09;101499.44;;;1.36;100.00
45050;BME280;61798;48.048;-1.928;2023-04-05T05:54:19;101498.47;;;1.37;100.00
45050;BME280;61798;48.048;-1.928;2023-04-05T05:56:46;101509.47;;;1.69;100.00
45050;BME280;61798;48.048;-1.928;2023-04-05T05:59:20;101501.53;;;1.69;100.00
45050;BME280;61798;48.048;-1.928;2023-04-05T06:01:54;101481.06;;;1.60;100.00
45050;BME280;61798;48.048;-1.928;2023-04-05T06:04:25;101554.06;;;1.98;100.00
45050;BME280;61798;48.048;-1.928;2023-04-05T06:06:57;101528.69;;;1.96;100.00
45050;BME280;61798;48.048;-1.928;2023-04-05T06:09:09;101509.47;;;1.94;100.00
45050;BME280;61798;48.048;-1.928;2023-04-05T06:11:19;101519.69;;;1.98;100.00
45050;BME280;61798;48.048;-1.928;2023-04-05T06:13:41;101564.00;;;2.19;100.00
45050;BME280;61798;48.048;-1.928;2023-04-05T06:16:01;101500.88;;;1.78;100.00
45050;BME280;61798;48.048;-1.928;2023-04-05T06:18:27;101557.31;;;2.27;100.00
45050;BME280;61798;48.048;-1.928;2023-04-05T06:20:39;101491.25;;;1.77;100.00
45050;BME280;61798;48.048;-1.928;2023-04-05T06:22:55;101511.34;;;1.92;100.00
45050;BME280;61798;48.048;-1.928;2023-04-05T06:25:18;101552.94;;;2.14;100.00
45050;BME280;61798;48.048;-1.928;2023-04-05T06:30:00;101553.59;;;2.29;100.00
45050;BME280;61798;48.048;-1.928;2023-04-05T06:32:09;101558.06;;;2.40;100.00
45050;BME280;61798;48.048;-1.928;2023-04-05T06:34:25;101557.44;;;2.37;100.00
45050;BME280;61798;48.048;-1.928;2023-04-05T06:36:45;101508.44;;;2.19;100.00
45050;BME280;61798;48.048;-1.928;2023-04-05T06:39:05;101464.88;;;2.00;100.00
45050;BME280;61798;48.048;-1.928;2023-04-05T06:41:47;101547.16;;;2.57;100.00
45050;BME280;61798;48.048;-1.928;2023-04-05T06:43:59;101492.59;;;2.31;100.00
45050;BME280;61798;48.048;-1.928;2023-04-05T06:46:24;101553.22;;;2.93;100.00
45050;BME280;61798;48.048;-1.928;2023-04-05T06:49:25;101560.22;;;3.06;100.00
45050;BME280;61798;48.048;-1.928;2023-04-05T06:52:18;101517.72;;;2.84;100.00
45050;BME280;61798;48.048;-1.928;2023-04-05T06:54:36;101554.09;;;3.17;100.00
45050;BME280;61798;48.048;-1.928;2023-04-05T06:57:02;101507.63;;;3.01;100.00
45050;BME280;61798;48.048;-1.928;2023-04-05T06:59:19;101513.50;;;3.16;100.00
45050;BME280;61798;48.048;-1.928;2023-04-05T07:02:18;101555.75;;;3.41;100.00
45050;BME280;61798;48.048;-1.928;2023-04-05T07:05:09;101524.22;;;3.38;100.00
45050;BME280;61798;48.048;-1.928;2023-04-05T07:07:23;101502.53;;;3.33;100.00
45050;BME280;61798;48.048;-1.928;2023-04-05T07:09:57;101525.00;;;3.62;100.00
45050;BME280;61798;48.048;-1.928;2023-04-05T07:12:27;101497.31;;;3.54;100.00
45050;BME280;61798;48.048;-1.928;2023-04-05T07:14:56;101534.63;;;3.96;100.00
45050;BME280;61798;48.048;-1.928;2023-04-05T07:17:58;101518.47;;;3.99;100.00
45050;BME280;61798;48.048;-1.928;2023-04-05T07:20:26;101515.06;;;4.08;100.00
45050;BME280;61798;48.048;-1.928;2023-04-05T07:22:46;101506.63;;;4.03;100.00
45050;BME280;61798;48.048;-1.928;2023-04-05T07:25:46;101520.78;;;4.25;100.00
45050;BME280;61798;48.048;-1.928;2023-04-05T07:27:59;101493.41;;;4.25;100.00
45050;BME280;61798;48.048;-1.928;2023-04-05T07:30:11;101485.94;;;4.18;100.00
45050;BME280;61798;48.048;-1.928;2023-04-05T07:32:35;101456.50;;;4.21;100.00
45050;BME280;61798;48.048;-1.928;2023-04-05T07:35:05;101479.00;;;4.49;100.00
45050;BME280;61798;48.048;-1.928;2023-04-05T07:37:18;101461.66;;;4.44;100.00
45050;BME280;61798;48.048;-1.928;2023-04-05T07:39:27;101497.88;;;4.77;100.00
45050;BME280;61798;48.048;-1.928;2023-04-05T07:41:39;101504.25;;;4.96;100.00
45050;BME280;61798;48.048;-1.928;2023-04-05T07:43:57;101508.72;;;4.95;100.00
45050;BME280;61798;48.048;-1.928;2023-04-05T07:46:23;101463.94;;;4.81;100.00
45050;BME280;61798;48.048;-1.928;2023-04-05T07:49:05;101449.72;;;5.02;100.00
45050;BME280;61798;48.048;-1.928;2023-04-05T07:51:58;101489.78;;;5.30;100.00
45050;BME280;61798;48.048;-1.928;2023-04-05T07:54:36;101430.16;;;5.03;100.00
45050;BME280;61798;48.048;-1.928;2023-04-05T07:57:09;101441.25;;;5.28;100.00
45050;BME280;61798;48.048;-1.928;2023-04-05T08:00:05;101414.97;;;5.25;100.00
45050;BME280;61798;48.048;-1.928;2023-04-05T08:02:56;101445.19;;;5.44;100.00
45050;BME280;61798;48.048;-1.928;2023-04-05T08:05:33;101469.56;;;5.69;100.00
45050;BME280;61798;48.048;-1.928;2023-04-05T08:08:11;101459.31;;;5.74;100.00
45050;BME280;61798;48.048;-1.928;2023-04-05T08:10:39;101416.50;;;5.57;100.00
45050;BME280;61798;48.048;-1.928;2023-04-05T08:13:26;101480.03;;;5.90;100.00
45050;BME280;61798;48.048;-1.928;2023-04-05T08:16:04;101462.28;;;6.01;100.00
45050;BME280;61798;48.048;-1.928;2023-04-05T08:18:34;101441.56;;;5.85;100.00
45050;BME280;61798;48.048;-1.928;2023-04-05T08:21:10;101434.25;;;5.87;100.00
45050;BME280;61798;48.048;-1.928;2023-04-05T08:24:06;101472.75;;;6.02;100.00
45050;BME280;61798;48.048;-1.928;2023-04-05T08:28:02;101429.78;;;5.87;100.00
45050;BME280;61798;48.048;-1.928;2023-04-05T08:35:21;101466.31;;;6.25;100.00
45050;BME280;61798;48.048;-1.928;2023-04-05T08:38:22;101450.19;;;6.37;100.00
45050;BME280;61798;48.048;-1.928;2023-04-05T08:53:23;101452.84;;;6.75;100.00
45050;BME280;61798;48.048;-1.928;2023-04-05T09:02:43;101455.25;;;7.43;100.00
45050;BME280;61798;48.048;-1.928;2023-04-05T09:29:26;101416.75;;;8.63;100.00
45050;BME280;61798;48.048;-1.928;2023-04-05T09:47:32;101373.63;;;9.26;100.00
45050;BME280;61798;48.048;-1.928;2023-04-05T09:50:19;101374.16;;;9.47;100.00
45050;BME280;61798;48.048;-1.928;2023-04-05T09:52:28;101396.53;;;9.79;100.00
45050;BME280;61798;48.048;-1.928;2023-04-05T09:54:45;101393.81;;;9.96;100.00
45050;BME280;61798;48.048;-1.928;2023-04-05T09:56:54;101379.81;;;9.86;100.00
45050;BME280;61798;48.048;-1.928;2023-04-05T09:59:11;101368.09;;;9.78;100.00
45050;BME280;61798;48.048;-1.928;2023-04-05T10:01:18;101385.78;;;10.04;100.00
45050;BME280;61798;48.048;-1.928;2023-04-05T10:03:24;101384.03;;;10.29;100.00
45050;BME280;61798;48.048;-1.928;2023-04-05T10:05:32;101386.22;;;10.25;100.00
45050;BME280;61798;48.048;-1.928;2023-04-05T10:07:39;101365.44;;;10.35;100.00
45050;BME280;61798;48.048;-1.928;2023-04-05T10:09:48;101355.19;;;10.39;100.00
45050;BME280;61798;48.048;-1.928;2023-04-05T10:11:54;101371.25;;;10.47;100.00
45050;BME280;61798;48.048;-1.928;2023-04-05T10:14:02;101367.19;;;10.52;100.00
45050;BME280;61798;48.048;-1.928;2023-04-05T10:16:12;101384.56;;;10.73;100.00
45050;BME280;61798;48.048;-1.928;2023-04-05T10:18:23;101346.94;;;10.57;100.00
45050;BME280;61798;48.048;-1.928;2023-04-05T10:20:38;101374.75;;;10.88;100.00
45050;BME280;61798;48.048;-1.928;2023-04-05T10:25:04;101346.75;;;10.91;100.00
45050;BME280;61798;48.048;-1.928;2023-04-05T10:27:54;101321.06;;;10.73;100.00
45050;BME280;61798;48.048;-1.928;2023-04-05T10:30:07;101358.47;;;11.22;100.00
45050;BME280;61798;48.048;-1.928;2023-04-05T10:40:24;101322.22;;;11.26;100.00
45050;BME280;61798;48.048;-1.928;2023-04-05T10:42:42;101366.59;;;11.52;100.00
45050;BME280;61798;48.048;-1.928;2023-04-05T10:45:01;101368.28;;;11.53;100.00
45050;BME280;61798;48.048;-1.928;2023-04-05T10:47:13;101382.50;;;11.78;100.00
45050;BME280;61798;48.048;-1.928;2023-04-05T10:49:45;101381.44;;;11.79;100.00
45050;BME280;61798;48.048;-1.928;2023-04-05T10:51:54;101368.94;;;11.71;100.00
45050;BME280;61798;48.048;-1.928;2023-04-05T10:54:01;101360.06;;;11.70;100.00
45050;BME280;61798;48.048;-1.928;2023-04-05T10:56:07;101373.97;;;11.89;100.00
45050;BME280;61798;48.048;-1.928;2023-04-05T10:58:14;101372.75;;;11.77;100.00
45050;BME280;61798;48.048;-1.928;2023-04-05T11:00:21;101354.06;;;11.83;100.00
45050;BME280;61798;48.048;-1.928;2023-04-05T11:02:28;101362.50;;;11.95;100.00
45050;BME280;61798;48.048;-1.928;2023-04-05T11:04:35;101373.91;;;12.13;100.00
45050;BME280;61798;48.048;-1.928;2023-04-05T11:06:41;101360.00;;;12.09;100.00
45050;BME280;61798;48.048;-1.928;2023-04-05T11:08:51;101365.13;;;12.19;100.00
45050;BME280;61798;48.048;-1.928;2023-04-05T11:10:58;101369.38;;;11.98;100.00
45050;BME280;61798;48.048;-1.928;2023-04-05T11:13:06;101369.91;;;11.93;100.00
45050;BME280;61798;48.048;-1.928;2023-04-05T11:15:31;101339.63;;;11.84;100.00
45050;BME280;61798;48.048;-1.928;2023-04-05T11:17:38;101372.31;;;12.03;100.00
45050;BME280;61798;48.048;-1.928;2023-04-05T11:21:59;101358.81;;;12.27;100.00
45050;BME280;61798;48.048;-1.928;2023-04-05T11:24:08;101344.75;;;12.25;100.00
45050;BME280;61798;48.048;-1.928;2023-04-05T11:26:16;101360.75;;;12.48;100.00
45050;BME280;61798;48.048;-1.928;2023-04-05T11:32:53;101375.28;;;12.92;100.00
45050;BME280;61798;48.048;-1.928;2023-04-05T11:35:04;101366.50;;;12.83;100.00
45050;BME280;61798;48.048;-1.928;2023-04-05T11:37:14;101368.25;;;12.53;100.00
45050;BME280;61798;48.048;-1.928;2023-04-05T11:41:32;101365.59;;;12.75;100.00
45050;BME280;61798;48.048;-1.928;2023-04-05T11:43:38;101366.09;;;12.64;100.00
45050;BME280;61798;48.048;-1.928;2023-04-05T11:45:44;101355.25;;;12.57;100.00
45050;BME280;61798;48.048;-1.928;2023-04-05T11:47:52;101326.41;;;12.66;100.00
45050;BME280;61798;48.048;-1.928;2023-04-05T11:49:58;101351.03;;;13.07;100.00
45050;BME280;61798;48.048;-1.928;2023-04-05T11:52:18;101357.09;;;13.16;100.00
45050;BME280;61798;48.048;-1.928;2023-04-05T11:54:30;101353.63;;;13.22;100.00
45050;BME280;61798;48.048;-1.928;2023-04-05T11:56:37;101342.75;;;13.08;100.00
45050;BME280;61798;48.048;-1.928;2023-04-05T11:58:43;101344.88;;;13.13;100.00
45050;BME280;61798;48.048;-1.928;2023-04-05T12:01:00;101352.88;;;13.28;100.00
45050;BME280;61798;48.048;-1.928;2023-04-05T12:03:16;101338.91;;;13.18;100.00
45050;BME280;61798;48.048;-1.928;2023-04-05T12:05:23;101319.31;;;13.02;100.00
45050;BME280;61798;48.048;-1.928;2023-04-05T12:07:31;101326.81;;;13.07;100.00
45050;BME280;61798;48.048;-1.928;2023-04-05T12:12:15;101326.94;;;12.76;100.00
45050;BME280;61798;48.048;-1.928;2023-04-05T12:14:22;101334.47;;;13.10;100.00
45050;BME280;61798;48.048;-1.928;2023-04-05T12:16:28;101310.69;;;13.36;100.00
45050;BME280;61798;48.048;-1.928;2023-04-05T12:18:37;101306.88;;;13.52;100.00
45050;BME280;61798;48.048;-1.928;2023-04-05T12:20:44;101307.50;;;13.54;100.00
45050;BME280;61798;48.048;-1.928;2023-04-05T12:22:53;101293.72;;;13.35;100.00
45050;BME280;61798;48.048;-1.928;2023-04-05T12:25:02;101283.88;;;13.20;100.00
45050;BME280;61798;48.048;-1.928;2023-04-05T12:27:11;101304.63;;;13.56;100.00
45050;BME280;61798;48.048;-1.928;2023-04-05T12:29:22;101302.94;;;13.54;100.00
45050;BME280;61798;48.048;-1.928;2023-04-05T12:31:42;101288.31;;;13.35;100.00
45050;BME280;61798;48.048;-1.928;2023-04-05T12:33:48;101290.19;;;13.35;100.00
45050;BME280;61798;48.048;-1.928;2023-04-05T12:35:56;101308.88;;;13.43;100.00
45050;BME280;61798;48.048;-1.928;2023-04-05T12:38:05;101307.44;;;13.40;100.00
45050;BME280;61798;48.048;-1.928;2023-04-05T12:40:19;101300.69;;;13.58;100.00
45050;BME280;61798;48.048;-1.928;2023-04-05T12:42:34;101290.63;;;13.38;100.00
45050;BME280;61798;48.048;-1.928;2023-04-05T12:44:42;101304.09;;;13.67;100.00
45050;BME280;61798;48.048;-1.928;2023-04-05T12:47:02;101302.06;;;13.69;100.00
45050;BME280;61798;48.048;-1.928;2023-04-05T12:49:17;101285.66;;;13.64;100.00
45050;BME280;61798;48.048;-1.928;2023-04-05T12:51:30;101299.13;;;14.00;100.00
45050;BME280;61798;48.048;-1.928;2023-04-05T12:53:44;101276.59;;;13.72;100.00
45050;BME280;61798;48.048;-1.928;2023-04-05T12:55:55;101260.25;;;13.80;100.00
45050;BME280;61798;48.048;-1.928;2023-04-05T12:58:03;101278.22;;;14.09;100.00
45050;BME280;61798;48.048;-1.928;2023-04-05T13:00:11;101274.91;;;14.13;100.00
45050;BME280;61798;48.048;-1.928;2023-04-05T13:02:20;101295.81;;;14.04;100.00
45050;BME280;61798;48.048;-1.928;2023-04-05T13:04:28;101284.63;;;14.08;100.00
45050;BME280;61798;48.048;-1.928;2023-04-05T13:06:34;101263.50;;;14.04;100.00
45050;BME280;61798;48.048;-1.928;2023-04-05T13:08:40;101258.44;;;13.94;100.00
45050;BME280;61798;48.048;-1.928;2023-04-05T13:10:49;101287.47;;;14.48;100.00
45050;BME280;61798;48.048;-1.928;2023-04-05T13:12:55;101273.09;;;14.27;100.00
45050;BME280;61798;48.048;-1.928;2023-04-05T13:15:02;101274.28;;;14.11;100.00
45050;BME280;61798;48.048;-1.928;2023-04-05T13:17:12;101270.84;;;14.31;100.00
45050;BME280;61798;48.048;-1.928;2023-04-05T13:19:19;101248.16;;;14.12;100.00
45050;BME280;61798;48.048;-1.928;2023-04-05T13:21:26;101272.34;;;14.61;100.00
45050;BME280;61798;48.048;-1.928;2023-04-05T13:23:37;101267.78;;;14.62;100.00
45050;BME280;61798;48.048;-1.928;2023-04-05T13:25:56;101245.38;;;13.84;100.00
45050;BME280;61798;48.048;-1.928;2023-04-05T13:28:04;101251.69;;;13.70;100.00
45050;BME280;61798;48.048;-1.928;2023-04-05T13:30:12;101260.97;;;14.03;100.00
45050;BME280;61798;48.048;-1.928;2023-04-05T13:32:19;101249.50;;;14.50;100.00
45050;BME280;61798;48.048;-1.928;2023-04-05T13:34:28;101244.53;;;14.47;100.00
45050;BME280;61798;48.048;-1.928;2023-04-05T13:36:35;101240.69;;;14.07;100.00
45050;BME280;61798;48.048;-1.928;2023-04-05T13:38:43;101257.41;;;14.52;100.00
45050;BME280;61798;48.048;-1.928;2023-04-05T13:40:50;101230.09;;;14.05;100.00
45050;BME280;61798;48.048;-1.928;2023-04-05T13:42:58;101241.16;;;14.24;100.00
45050;BME280;61798;48.048;-1.928;2023-04-05T13:45:09;101235.97;;;14.23;100.00
45050;BME280;61798;48.048;-1.928;2023-04-05T13:47:18;101233.34;;;14.50;100.00
45050;BME280;61798;48.048;-1.928;2023-04-05T13:49:28;101239.97;;;14.61;100.00
45050;BME280;61798;48.048;-1.928;2023-04-05T13:51:36;101233.78;;;14.81;100.00
45050;BME280;61798;48.048;-1.928;2023-04-05T13:53:46;101222.97;;;14.81;100.00
45050;BME280;61798;48.048;-1.928;2023-04-05T13:55:52;101235.25;;;14.84;100.00
45050;BME280;61798;48.048;-1.928;2023-04-05T13:57:58;101228.84;;;14.92;100.00
45050;BME280;61798;48.048;-1.928;2023-04-05T14:00:05;101232.56;;;15.18;100.00
45050;BME280;61798;48.048;-1.928;2023-04-05T14:02:11;101214.28;;;15.06;100.00
45050;BME280;61798;48.048;-1.928;2023-04-05T14:04:17;101214.53;;;15.05;100.00
45050;BME280;61798;48.048;-1.928;2023-04-05T14:06:23;101222.13;;;15.42;100.00
45050;BME280;61798;48.048;-1.928;2023-04-05T14:08:29;101212.13;;;15.49;100.00
45050;BME280;61798;48.048;-1.928;2023-04-05T14:10:35;101206.81;;;14.88;100.00
45050;BME280;61798;48.048;-1.928;2023-04-05T14:12:41;101195.81;;;14.83;100.00
45050;BME280;61798;48.048;-1.928;2023-04-05T14:14:47;101196.84;;;15.02;100.00
45050;BME280;61798;48.048;-1.928;2023-04-05T14:16:54;101203.06;;;15.23;100.00
45050;BME280;61798;48.048;-1.928;2023-04-05T14:19:00;101197.69;;;14.68;100.00
45050;BME280;61798;48.048;-1.928;2023-04-05T14:21:06;101187.69;;;14.62;100.00
45050;BME280;61798;48.048;-1.928;2023-04-05T14:23:12;101194.28;;;14.25;100.00
45050;BME280;61798;48.048;-1.928;2023-04-05T14:25:18;101176.91;;;14.69;100.00
45050;BME280;61798;48.048;-1.928;2023-04-05T14:27:24;101154.72;;;14.46;100.00
45050;BME280;61798;48.048;-1.928;2023-04-05T14:29:33;101167.56;;;14.78;100.00
45050;BME280;61798;48.048;-1.928;2023-04-05T14:31:39;101150.56;;;14.78;100.00
45050;BME280;61798;48.048;-1.928;2023-04-05T14:33:45;101129.63;;;14.80;100.00
45050;BME280;61798;48.048;-1.928;2023-04-05T14:35:51;101151.41;;;14.99;100.00
45050;BME280;61798;48.048;-1.928;2023-04-05T14:37:57;101173.59;;;14.87;100.00
45050;BME280;61798;48.048;-1.928;2023-04-05T14:40:03;101183.16;;;15.10;100.00
45050;BME280;61798;48.048;-1.928;2023-04-05T14:42:09;101161.34;;;15.05;100.00